Time;durP1;ratioP1;P1;durP2;ratioP2;P2;SDS_P1;SDS_P2;PMS_P1;PMS_P2;Temp;Humidity;BMP_temperature;BMP_pressure;BME280_temperature;BME280_humidity;BME280_pressure;Samples;Min_cycle;Max_cycle;Signal;HPM_P1;HPM_P2
2022/07/26 00:00:54;;;;;;;6.03;4.75;;;21.00;99.90;;;;;;4953333;28;20051;-74
2022/07/26 00:03:21;;;;;;;7.45;6.50;;;20.30;99.90;;;;;;4955361;28;20026;-78
2022/07/26 00:05:48;;;;;;;10.85;6.28;;;19.70;99.90;;;;;;4953892;28;20138;-77
2022/07/26 00:08:16;;;;;;;8.85;6.82;;;19.00;99.90;;;;;;4951906;28;20024;-77
2022/07/26 00:10:47;;;;;;;10.15;6.63;;;18.50;99.90;;;;;;4973133;28;20089;-76
2022/07/26 00:13:16;;;;;;;9.30;5.60;;;18.50;99.90;;;;;;4945204;29;20024;-78
2022/07/26 00:15:45;;;;;;;6.80;5.47;;;18.80;99.90;;;;;;4946814;29;20131;-74
2022/07/26 00:18:14;;;;;;;6.10;5.50;;;19.70;99.90;;;;;;4944775;29;20384;-77
2022/07/26 00:20:42;;;;;;;6.13;5.20;;;20.90;99.90;;;;;;4941282;28;20027;-74
2022/07/26 00:23:10;;;;;;;6.43;5.38;;;21.60;99.90;;;;;;4951199;29;20090;-75
2022/07/26 00:25:37;;;;;;;6.43;5.68;;;22.20;99.90;;;;;;4946516;29;20031;-73
2022/07/26 00:28:05;;;;;;;5.47;3.97;;;22.30;99.90;;;;;;4946528;28;20031;-73
2022/07/26 00:30:33;;;;;;;4.72;3.50;;;22.70;99.90;;;;;;4955564;29;20059;-76
2022/07/26 00:33:01;;;;;;;4.10;3.47;;;23.10;99.90;;;;;;4953224;29;20385;-74
2022/07/26 00:35:28;;;;;;;4.07;3.15;;;23.60;99.90;;;;;;4952024;29;20094;-75
2022/07/26 00:37:56;;;;;;;3.85;2.72;;;24.20;99.40;;;;;;4950251;28;20023;-76
2022/07/26 00:40:23;;;;;;;3.45;2.80;;;24.80;98.00;;;;;;4949728;28;20031;-73
2022/07/26 00:42:51;;;;;;;3.35;2.25;;;24.40;98.10;;;;;;4942319;29;20031;-79
2022/07/26 00:45:19;;;;;;;2.65;2.40;;;24.30;98.90;;;;;;4949553;29;20118;-77
2022/07/26 00:47:46;;;;;;;2.97;2.08;;;24.70;98.40;;;;;;4938475;28;20027;-77
2022/07/26 00:50:16;;;;;;;3.75;2.25;;;25.20;97.60;;;;;;4952742;29;20039;-79
2022/07/26 00:52:45;;;;;;;3.78;1.27;;;25.20;97.30;;;;;;4951352;28;20059;-79
2022/07/26 00:55:14;;;;;;;2.80;1.77;;;25.30;97.70;;;;;;4950683;29;20031;-75
2022/07/26 00:57:42;;;;;;;3.70;1.77;;;25.50;97.50;;;;;;4948747;28;20394;-76
2022/07/26 01:00:19;;;;;;;3.15;1.50;;;25.40;96.70;;;;;;4953534;29;20031;-76
2022/07/26 01:02:46;;;;;;;2.50;1.10;;;25.70;97.90;;;;;;4949155;29;20019;-78
2022/07/26 01:05:14;;;;;;;1.50;0.88;;;26.50;97.40;;;;;;4937108;29;20134;-76
2022/07/26 01:07:42;;;;;;;1.30;0.70;;;27.20;97.30;;;;;;4949828;28;20039;-74
2022/07/26 01:10:11;;;;;;;1.10;0.77;;;26.30;94.50;;;;;;4945801;28;20100;-78
2022/07/26 01:12:40;;;;;;;0.90;0.70;;;25.40;95.80;;;;;;4950673;28;20035;-73
2022/07/26 01:15:12;;;;;;;1.10;0.90;;;25.30;95.90;;;;;;4949441;28;20038;-74
2022/07/26 01:17:40;;;;;;;1.42;1.00;;;25.60;96.00;;;;;;4944916;28;20035;-73
2022/07/26 01:20:09;;;;;;;1.13;1.02;;;26.00;95.60;;;;;;4953059;28;20031;-74
2022/07/26 01:22:37;;;;;;;1.25;0.80;;;26.70;95.30;;;;;;4950670;28;20031;-75
2022/07/26 01:25:06;;;;;;;2.20;0.90;;;27.10;95.10;;;;;;4947997;28;20130;-76
2022/07/26 01:27:37;;;;;;;2.65;1.00;;;27.30;95.20;;;;;;4952689;28;20057;-76
2022/07/26 01:30:08;;;;;;;0.50;0.20;;;27.90;95.10;;;;;;4937784;29;20530;-76
2022/07/26 01:32:35;;;;;;;0.13;0.10;;;27.40;91.40;;;;;;4948658;29;20039;-77
2022/07/26 01:35:04;;;;;;;0.10;0.10;;;26.90;91.90;;;;;;4943824;28;20422;-76
2022/07/26 01:37:32;;;;;;;1.25;0.28;;;27.30;92.00;;;;;;4948109;28;20042;-77
2022/07/26 01:39:59;;;;;;;0.20;0.10;;;26.60;90.50;;;;;;4953896;29;20039;-74
2022/07/26 01:42:26;;;;;;;0.25;0.05;;;26.30;92.20;;;;;;4950658;28;20617;-77
2022/07/26 01:44:54;;;;;;;0.10;0.08;;;25.90;91.70;;;;;;4947223;28;20055;-74
2022/07/26 01:47:21;;;;;;;0.00;0.00;;;25.10;92.40;;;;;;4952055;28;20054;-76
2022/07/26 01:49:49;;;;;;;0.17;0.10;;;24.00;93.00;;;;;;4945613;29;20478;-77
2022/07/26 01:52:17;;;;;;;0.15;0.10;;;23.70;93.90;;;;;;4946837;28;20479;-75
2022/07/26 01:54:45;;;;;;;0.50;0.20;;;23.20;94.30;;;;;;4945536;28;20166;-76
2022/07/26 01:57:12;;;;;;;1.52;0.20;;;22.40;95.30;;;;;;4949215;28;20035;-79
2022/07/26 01:59:39;;;;;;;0.82;0.20;;;21.80;95.40;;;;;;4946089;29;20471;-74
2022/07/26 02:02:07;;;;;;;0.65;0.30;;;21.20;96.20;;;;;;4950196;28;20095;-74
2022/07/26 02:07:20;;;;;;;0.22;0.10;;;20.70;96.70;;;;;;4948430;28;20097;-79
2022/07/26 02:09:47;;;;;;;0.10;0.10;;;20.60;96.90;;;;;;4945397;28;20043;-79
2022/07/26 02:12:14;;;;;;;0.20;0.10;;;20.60;96.60;;;;;;4948655;29;20121;-75
2022/07/26 02:14:42;;;;;;;0.10;0.10;;;21.10;95.10;;;;;;4943922;28;20034;-77
2022/07/26 02:17:09;;;;;;;0.20;0.10;;;20.90;95.90;;;;;;4939834;29;20513;-77
2022/07/26 02:19:38;;;;;;;0.10;0.08;;;20.40;94.20;;;;;;4941460;29;20036;-77
2022/07/26 02:22:06;;;;;;;0.52;0.20;;;20.10;94.50;;;;;;4942441;29;20027;-75
2022/07/26 02:24:34;;;;;;;0.30;0.10;;;19.80;93.80;;;;;;4941487;28;20459;-77
2022/07/26 02:27:02;;;;;;;0.93;0.10;;;19.60;94.80;;;;;;4950192;28;20039;-78
2022/07/26 02:29:30;;;;;;;1.52;0.30;;;19.50;94.80;;;;;;4939100;28;20170;-80
2022/07/26 02:31:58;;;;;;;0.85;0.10;;;19.40;94.60;;;;;;4944482;29;20047;-77
2022/07/26 02:34:25;;;;;;;0.10;0.10;;;20.10;94.10;;;;;;4951091;28;20054;-79
2022/07/26 02:36:53;;;;;;;1.70;0.20;;;20.00;93.80;;;;;;4940101;29;20028;-76
2022/07/26 02:39:21;;;;;;;0.38;0.10;;;19.70;93.90;;;;;;4949439;28;20055;-77
2022/07/26 02:41:51;;;;;;;0.45;0.10;;;19.40;93.60;;;;;;4941165;28;20028;-74
2022/07/26 02:44:18;;;;;;;0.22;0.15;;;19.40;93.30;;;;;;4945909;29;20127;-75
2022/07/26 02:46:46;;;;;;;0.25;0.10;;;19.50;92.50;;;;;;4941658;29;20028;-81
2022/07/26 02:49:13;;;;;;;0.80;0.55;;;20.50;90.80;;;;;;4944026;28;20619;-76
2022/07/26 02:51:41;;;;;;;0.10;0.00;;;21.10;89.10;;;;;;4950343;29;20458;-76
2022/07/26 02:54:08;;;;;;;0.30;0.20;;;20.80;89.30;;;;;;4945656;28;20023;-75
2022/07/26 02:56:35;;;;;;;0.90;0.10;;;20.60;90.30;;;;;;4943272;28;20039;-76
2022/07/26 02:59:03;;;;;;;0.17;0.17;;;21.10;87.80;;;;;;4946853;28;20098;-79
2022/07/26 03:01:33;;;;;;;1.60;0.20;;;21.50;87.10;;;;;;4949899;28;20114;-78
2022/07/26 03:04:02;;;;;;;0.30;0.20;;;22.00;86.80;;;;;;4950158;28;20035;-76
2022/07/26 03:06:29;;;;;;;0.93;0.22;;;22.40;85.90;;;;;;4943528;28;20027;-75
2022/07/26 03:09:04;;;;;;;0.20;0.10;;;22.20;84.90;;;;;;4948163;28;20114;-78
2022/07/26 03:11:31;;;;;;;0.13;0.10;;;22.10;85.70;;;;;;4953573;29;20119;-74
2022/07/26 03:13:59;;;;;;;0.40;0.10;;;22.10;86.30;;;;;;4946260;29;20019;-75
2022/07/26 03:16:26;;;;;;;0.20;0.10;;;22.70;86.80;;;;;;4934583;29;20114;-74
2022/07/26 03:18:53;;;;;;;0.57;0.10;;;22.20;87.40;;;;;;4943818;28;20031;-73
2022/07/26 03:21:21;;;;;;;0.52;0.20;;;22.50;86.80;;;;;;4947592;29;20432;-76
2022/07/26 03:23:48;;;;;;;0.88;0.10;;;22.60;88.50;;;;;;4941237;28;20119;-75
2022/07/26 03:26:16;;;;;;;0.25;0.10;;;22.10;88.00;;;;;;4933321;28;20360;-77
2022/07/26 03:28:43;;;;;;;0.25;0.10;;;21.60;87.70;;;;;;4942044;29;20036;-77
2022/07/26 03:31:11;;;;;;;0.75;0.25;;;20.90;88.40;;;;;;4947664;28;20031;-75
2022/07/26 03:33:40;;;;;;;1.85;0.20;;;20.40;88.30;;;;;;4940955;28;20123;-74
2022/07/26 03:36:09;;;;;;;0.00;0.00;;;19.90;89.60;;;;;;4949357;29;20027;-75
2022/07/26 03:38:37;;;;;;;0.17;0.00;;;19.60;88.50;;;;;;4939354;28;20454;-74
2022/07/26 03:41:05;;;;;;;0.77;0.00;;;19.30;89.20;;;;;;4949580;28;20086;-76
2022/07/26 03:43:32;;;;;;;0.17;0.03;;;19.10;88.80;;;;;;4944382;29;20130;-73
2022/07/26 03:46:00;;;;;;;0.20;0.20;;;18.90;89.20;;;;;;4947358;29;20047;-75
2022/07/26 03:48:28;;;;;;;0.05;0.05;;;18.90;89.30;;;;;;4934688;29;20542;-76
2022/07/26 03:50:56;;;;;;;0.28;0.10;;;19.00;89.40;;;;;;4935446;28;20050;-75
2022/07/26 03:53:23;;;;;;;0.10;0.10;;;19.10;89.30;;;;;;4938239;29;20446;-73
2022/07/26 03:58:37;;;;;;;1.13;0.10;;;19.20;89.40;;;;;;4941547;29;20550;-75
2022/07/26 04:01:04;;;;;;;0.05;0.00;;;19.20;88.80;;;;;;4940424;28;20374;-79
2022/07/26 04:03:31;;;;;;;0.65;0.15;;;19.10;88.00;;;;;;4936766;28;20054;-73
2022/07/26 04:05:59;;;;;;;0.68;0.10;;;19.40;89.00;;;;;;4945361;28;20108;-74
2022/07/26 04:08:26;;;;;;;0.00;0.00;;;19.60;88.30;;;;;;4936484;28;20137;-82
2022/07/26 04:10:54;;;;;;;0.70;0.10;;;19.70;88.10;;;;;;4946009;29;20031;-80
2022/07/26 04:13:22;;;;;;;0.25;0.10;;;19.80;88.10;;;;;;4949571;29;20520;-79
2022/07/26 04:15:50;;;;;;;0.38;0.00;;;19.80;87.50;;;;;;4951175;28;20077;-79
2022/07/26 04:18:18;;;;;;;0.55;0.10;;;19.60;86.30;;;;;;4946683;28;20483;-84
2022/07/26 04:20:45;;;;;;;0.60;0.10;;;19.50;88.80;;;;;;4950585;28;20530;-79
2022/07/26 04:23:13;;;;;;;0.25;0.00;;;19.40;88.90;;;;;;4947983;29;20023;-83
2022/07/26 04:25:40;;;;;;;0.10;0.00;;;19.00;90.00;;;;;;4953102;28;20110;-78
2022/07/26 04:28:09;;;;;;;0.40;0.40;;;18.70;90.50;;;;;;4950637;29;20569;-81
2022/07/26 04:30:37;;;;;;;0.35;0.25;;;18.50;91.30;;;;;;4949138;28;20035;-80
2022/07/26 04:33:05;;;;;;;0.32;0.05;;;18.40;91.60;;;;;;4949991;28;20044;-78
2022/07/26 04:35:33;;;;;;;0.32;0.00;;;18.20;90.50;;;;;;4948360;29;20043;-80
2022/07/26 04:38:02;;;;;;;0.30;0.00;;;18.00;90.20;;;;;;4955675;28;20079;-82
2022/07/26 04:40:32;;;;;;;0.93;0.10;;;17.80;90.50;;;;;;4940837;28;20059;-80
2022/07/26 04:43:01;;;;;;;0.00;0.00;;;17.70;91.30;;;;;;4943924;29;20114;-78
2022/07/26 04:45:29;;;;;;;0.00;0.00;;;17.60;91.30;;;;;;4944900;29;20039;-79
2022/07/26 04:47:57;;;;;;;0.20;0.00;;;17.40;91.80;;;;;;4943958;29;20023;-79
2022/07/26 04:50:26;;;;;;;0.00;0.00;;;17.20;91.50;;;;;;4939575;29;20099;-76
2022/07/26 04:52:54;;;;;;;2.38;0.00;;;17.00;91.20;;;;;;4944326;29;20059;-78
2022/07/26 04:55:22;;;;;;;0.10;0.00;;;16.90;91.70;;;;;;4954570;29;20063;-75
2022/07/26 04:57:50;;;;;;;0.10;0.00;;;16.80;91.50;;;;;;4952149;28;20035;-75
2022/07/26 05:00:22;;;;;;;0.00;0.00;;;16.80;91.90;;;;;;4949891;28;20382;-75
2022/07/26 05:02:52;;;;;;;0.05;0.00;;;16.70;91.90;;;;;;4947790;29;20047;-78
2022/07/26 05:05:20;;;;;;;0.05;0.00;;;16.70;92.00;;;;;;4951991;29;20039;-74
2022/07/26 05:07:56;;;;;;;2.65;0.25;;;16.90;92.30;;;;;;4943714;29;20462;-75
2022/07/26 05:10:30;;;;;;;0.13;0.00;;;16.90;92.40;;;;;;4945581;29;20034;-77
2022/07/26 05:12:57;;;;;;;0.77;0.00;;;16.80;92.90;;;;;;4943812;29;20744;-80
2022/07/26 05:15:25;;;;;;;0.38;0.10;;;16.70;92.50;;;;;;4951187;29;20032;-79
2022/07/26 05:17:55;;;;;;;0.77;0.10;;;16.70;92.60;;;;;;4952559;29;20046;-78
2022/07/26 05:20:23;;;;;;;0.10;0.00;;;16.60;92.60;;;;;;4953823;29;20094;-78
2022/07/26 05:22:54;;;;;;;0.08;0.00;;;16.40;91.40;;;;;;4944810;28;20031;-78
2022/07/26 05:25:21;;;;;;;0.00;0.00;;;16.20;91.80;;;;;;4950978;29;20320;-77
2022/07/26 05:27:48;;;;;;;0.00;0.00;;;16.10;92.10;;;;;;4943875;28;20055;-74
2022/07/26 05:30:16;;;;;;;0.40;0.13;;;16.00;92.10;;;;;;4941283;29;20074;-76
2022/07/26 05:32:44;;;;;;;0.38;0.22;;;15.90;92.70;;;;;;4945467;28;20398;-74
2022/07/26 05:35:12;;;;;;;0.20;0.13;;;15.80;92.70;;;;;;4950182;28;20050;-77
2022/07/26 05:37:39;;;;;;;0.50;0.32;;;15.60;93.10;;;;;;4942367;28;20078;-75
2022/07/26 05:40:08;;;;;;;0.63;0.40;;;15.50;93.10;;;;;;4954029;28;20028;-75
2022/07/26 05:42:35;;;;;;;0.40;0.20;;;15.40;93.30;;;;;;4938465;29;20144;-74
2022/07/26 05:45:04;;;;;;;0.30;0.10;;;15.40;93.60;;;;;;4938593;28;20112;-75
2022/07/26 05:47:32;;;;;;;0.57;0.10;;;15.50;93.30;;;;;;4945523;29;20063;-74
2022/07/26 05:49:59;;;;;;;0.40;0.10;;;15.50;93.60;;;;;;4952064;28;20513;-74
2022/07/26 05:52:27;;;;;;;0.73;0.30;;;15.50;93.50;;;;;;4953728;28;20031;-74
2022/07/26 05:54:54;;;;;;;0.10;0.10;;;15.40;93.30;;;;;;4942251;28;20090;-75
2022/07/26 05:57:21;;;;;;;0.08;0.00;;;15.40;92.10;;;;;;4945196;29;20034;-74
2022/07/26 05:59:50;;;;;;;0.63;0.05;;;15.20;91.90;;;;;;4941769;28;20050;-74
2022/07/26 06:02:17;;;;;;;0.00;0.00;;;15.10;92.10;;;;;;4951145;29;20085;-75
2022/07/26 06:04:45;;;;;;;0.63;0.10;;;15.00;92.30;;;;;;4944612;29;20039;-75
2022/07/26 06:07:12;;;;;;;1.45;0.10;;;15.00;92.60;;;;;;4947858;29;20027;-75
2022/07/26 06:09:40;;;;;;;1.65;0.10;;;14.90;92.60;;;;;;4948263;29;20056;-79
2022/07/26 06:12:07;;;;;;;0.10;0.10;;;14.80;92.20;;;;;;4950509;28;20553;-81
2022/07/26 06:14:35;;;;;;;0.00;0.00;;;14.70;92.40;;;;;;4947935;29;20047;-78
2022/07/26 06:17:03;;;;;;;0.00;0.00;;;14.60;92.00;;;;;;4951293;29;20029;-78
2022/07/26 06:19:31;;;;;;;0.43;0.17;;;14.40;91.70;;;;;;4950570;29;20043;-81
2022/07/26 06:21:59;;;;;;;0.22;0.10;;;14.30;91.80;;;;;;4945904;29;20089;-79
2022/07/26 06:24:27;;;;;;;1.27;0.10;;;14.30;91.90;;;;;;4950566;29;20081;-78
2022/07/26 06:26:55;;;;;;;0.08;0.08;;;14.30;92.10;;;;;;4948691;29;20502;-79
2022/07/26 06:29:23;;;;;;;0.30;0.08;;;14.20;92.10;;;;;;4946956;29;20042;-78
2022/07/26 06:31:51;;;;;;;1.75;0.20;;;14.10;92.90;;;;;;4944979;28;20169;-78
2022/07/26 06:34:18;;;;;;;0.95;0.15;;;14.20;92.90;;;;;;4935108;29;20158;-77
2022/07/26 06:36:46;;;;;;;1.10;0.38;;;14.30;92.60;;;;;;4949892;28;20031;-77
2022/07/26 06:39:13;;;;;;;0.28;0.20;;;14.20;92.80;;;;;;4951044;29;20039;-80
2022/07/26 06:41:40;;;;;;;0.55;0.20;;;14.10;93.10;;;;;;4950716;28;20035;-77
2022/07/26 06:44:08;;;;;;;0.43;0.20;;;14.10;93.30;;;;;;4940683;28;20530;-79
2022/07/26 06:46:35;;;;;;;5.70;0.30;;;14.00;93.50;;;;;;4944324;29;20486;-76
2022/07/26 06:49:03;;;;;;;0.60;0.38;;;13.80;93.30;;;;;;4932290;29;20362;-78
2022/07/26 06:51:30;;;;;;;1.38;0.40;;;13.60;93.70;;;;;;4945962;28;20058;-77
2022/07/26 06:53:58;;;;;;;0.63;0.47;;;13.50;93.90;;;;;;4944018;28;20167;-75
2022/07/26 06:56:26;;;;;;;0.47;0.10;;;13.40;94.00;;;;;;4946517;29;20028;-79
2022/07/26 06:58:55;;;;;;;0.55;0.22;;;13.30;93.70;;;;;;4929924;29;20023;-78
2022/07/26 07:01:22;;;;;;;0.43;0.20;;;13.20;94.00;;;;;;4950662;28;20090;-77
2022/07/26 07:03:49;;;;;;;1.45;0.82;;;13.10;94.50;;;;;;4940760;28;20047;-77
2022/07/26 07:06:17;;;;;;;1.10;0.80;;;13.00;94.80;;;;;;4938120;29;20075;-78
2022/07/26 07:08:47;;;;;;;1.15;0.20;;;12.90;95.10;;;;;;4940557;29;20098;-77
2022/07/26 07:11:14;;;;;;;3.42;0.57;;;12.90;94.20;;;;;;4939869;29;20032;-78
2022/07/26 07:13:42;;;;;;;1.45;0.25;;;12.80;94.00;;;;;;4941971;29;20478;-78
2022/07/26 07:16:09;;;;;;;0.57;0.10;;;12.70;94.30;;;;;;4948858;29;20042;-78
2022/07/26 07:18:36;;;;;;;0.30;0.30;;;12.60;94.20;;;;;;4936053;28;20027;-75
2022/07/26 07:21:04;;;;;;;0.20;0.10;;;12.50;94.30;;;;;;4943858;28;20031;-79
2022/07/26 07:23:32;;;;;;;0.17;0.10;;;12.50;94.10;;;;;;4944024;28;20110;-81
2022/07/26 07:26:00;;;;;;;0.55;0.20;;;12.50;94.10;;;;;;4935703;29;20350;-77
2022/07/26 07:28:27;;;;;;;1.48;0.15;;;12.40;94.20;;;;;;4946596;28;20498;-76
2022/07/26 07:30:55;;;;;;;0.77;0.40;;;12.40;94.20;;;;;;4942969;29;20123;-75
2022/07/26 07:33:23;;;;;;;1.20;0.30;;;12.30;94.50;;;;;;4939220;28;20208;-75
2022/07/26 07:35:58;;;;;;;3.15;0.65;;;12.10;94.70;;;;;;4947121;29;20031;-72
2022/07/26 07:38:44;;;;;;;1.35;0.70;;;12.10;94.50;;;;;;4948580;28;20110;-74
2022/07/26 07:41:20;;;;;;;2.28;0.93;;;12.00;94.50;;;;;;4942915;29;20594;-76
2022/07/26 07:43:47;;;;;;;1.10;0.40;;;11.90;94.60;;;;;;4943402;28;20047;-78
2022/07/26 07:46:15;;;;;;;0.73;0.10;;;11.90;94.50;;;;;;4932695;28;20130;-79
2022/07/26 07:48:42;;;;;;;0.38;0.20;;;11.90;94.50;;;;;;4940122;29;20045;-77
2022/07/26 07:51:10;;;;;;;2.05;0.20;;;11.80;94.60;;;;;;4945432;28;20031;-77
2022/07/26 07:53:37;;;;;;;0.95;0.57;;;11.80;94.50;;;;;;4941935;28;20431;-78
2022/07/26 07:56:05;;;;;;;0.50;0.20;;;11.70;94.70;;;;;;4950005;28;20035;-77
2022/07/26 07:58:32;;;;;;;0.45;0.10;;;11.70;94.40;;;;;;4950775;28;20043;-77
2022/07/26 08:01:00;;;;;;;1.50;0.20;;;11.70;94.30;;;;;;4939446;28;20028;-76
2022/07/26 08:03:27;;;;;;;0.20;0.05;;;11.70;94.50;;;;;;4945348;29;20359;-79
2022/07/26 08:05:55;;;;;;;0.82;0.40;;;11.60;94.70;;;;;;4949334;29;20039;-78
2022/07/26 08:08:22;;;;;;;1.05;0.70;;;11.50;94.90;;;;;;4948262;28;20063;-79
2022/07/26 08:10:51;;;;;;;1.65;0.17;;;11.50;94.80;;;;;;4942573;29;20054;-80
2022/07/26 08:13:19;;;;;;;1.88;0.20;;;11.50;94.50;;;;;;4944030;29;20042;-76
2022/07/26 08:15:46;;;;;;;0.85;0.25;;;11.50;94.50;;;;;;4949469;28;20031;-79
2022/07/26 08:18:14;;;;;;;0.10;0.10;;;11.50;94.30;;;;;;4945380;29;20035;-75
2022/07/26 08:20:41;;;;;;;0.38;0.28;;;11.50;94.30;;;;;;4939920;29;20041;-77
2022/07/26 08:23:08;;;;;;;0.50;0.30;;;11.40;94.90;;;;;;4947218;28;20072;-77
2022/07/26 08:25:36;;;;;;;0.35;0.17;;;11.30;94.90;;;;;;4952082;29;20098;-78
2022/07/26 08:28:03;;;;;;;0.30;0.17;;;11.30;94.90;;;;;;4933105;29;20378;-76
2022/07/26 08:30:32;;;;;;;0.35;0.10;;;11.30;94.90;;;;;;4949849;28;20094;-76
2022/07/26 08:33:01;;;;;;;0.47;0.17;;;11.20;95.00;;;;;;4946153;29;20482;-73
2022/07/26 08:35:31;;;;;;;0.65;0.10;;;11.20;95.20;;;;;;4951610;29;20401;-76
2022/07/26 08:37:58;;;;;;;1.55;0.20;;;11.20;95.10;;;;;;4950364;29;20024;-75
2022/07/26 08:40:26;;;;;;;0.95;0.20;;;11.10;95.20;;;;;;4951363;29;20040;-76
2022/07/26 08:42:54;;;;;;;0.38;0.20;;;11.10;95.40;;;;;;4951578;28;20090;-76
2022/07/26 08:45:27;;;;;;;0.28;0.20;;;11.20;95.70;;;;;;4948487;29;20034;-78
2022/07/26 08:47:54;;;;;;;0.60;0.10;;;11.10;95.60;;;;;;4942125;28;20077;-80
2022/07/26 08:50:22;;;;;;;0.20;0.10;;;11.20;95.60;;;;;;4950542;29;20046;-80
2022/07/26 08:52:51;;;;;;;0.57;0.10;;;11.20;95.60;;;;;;4950783;29;20027;-79
2022/07/26 08:55:20;;;;;;;0.43;0.30;;;11.30;96.10;;;;;;4947959;29;20069;-78
2022/07/26 08:57:47;;;;;;;1.33;0.20;;;11.30;95.80;;;;;;4951399;29;20056;-79
2022/07/26 09:00:42;;;;;;;1.95;0.20;;;11.40;95.70;;;;;;4941563;28;20363;-78
2022/07/26 09:03:25;;;;;;;1.45;0.10;;;11.50;95.80;;;;;;4944016;29;20070;-79
2022/07/26 09:05:54;;;;;;;0.40;0.00;;;11.60;95.90;;;;;;4939252;29;20043;-78
2022/07/26 09:08:27;;;;;;;0.10;0.00;;;11.70;95.40;;;;;;4940069;28;20115;-76
2022/07/26 09:10:55;;;;;;;0.00;0.00;;;11.80;95.30;;;;;;4946205;29;20510;-81
2022/07/26 09:13:23;;;;;;;1.17;0.10;;;11.90;95.20;;;;;;4942122;28;20031;-78
2022/07/26 09:16:09;;;;;;;0.20;0.10;;;11.90;95.50;;;;;;4947982;29;20019;-76
2022/07/26 09:18:36;;;;;;;;;;;11.90;95.50;;;;;;4939580;28;20130;-77
2022/07/26 09:21:03;;;;;;;0.35;0.17;;;11.90;95.80;;;;;;4948748;28;19918;-77
2022/07/26 09:23:42;;;;;;;0.22;0.10;;;12.00;95.40;;;;;;4947373;28;20035;-78
2022/07/26 09:26:10;;;;;;;0.13;0.10;;;12.00;95.40;;;;;;4938410;28;20052;-75
2022/07/26 09:28:37;;;;;;;1.60;0.40;;;12.00;95.20;;;;;;4944554;28;20038;-76
2022/07/26 09:31:05;;;;;;;0.75;0.30;;;12.00;95.30;;;;;;4953342;29;20037;-75
2022/07/26 09:33:48;;;;;;;0.30;0.13;;;12.00;95.50;;;;;;4947018;28;20043;-77
2022/07/26 09:36:17;;;;;;;0.52;0.32;;;12.00;95.50;;;;;;4943930;28;20031;-77
2022/07/26 09:38:57;;;;;;;1.10;0.10;;;12.10;95.50;;;;;;4941531;28;20035;-79
2022/07/26 09:41:25;;;;;;;0.75;0.50;;;12.10;95.50;;;;;;4951276;29;20482;-77
2022/07/26 09:43:54;;;;;;;0.50;0.20;;;12.10;95.40;;;;;;4950816;28;20035;-78
2022/07/26 09:46:24;;;;;;;0.93;0.20;;;12.10;95.70;;;;;;4943628;29;20068;-77
2022/07/26 09:48:54;;;;;;;1.75;0.25;;;12.10;95.50;;;;;;4939072;28;20032;-80
2022/07/26 09:51:41;;;;;;;0.68;0.20;;;12.10;95.50;;;;;;4935024;29;20015;-81
2022/07/26 09:54:10;;;;;;;0.30;0.17;;;12.10;95.60;;;;;;4939018;29;20043;-83
2022/07/26 09:56:51;;;;;;;0.20;0.10;;;12.10;95.60;;;;;;4936227;29;20054;-80
2022/07/26 09:59:24;;;;;;;0.40;0.20;;;12.10;95.50;;;;;;4947732;29;20511;-80
2022/07/26 10:01:53;;;;;;;0.60;0.10;;;12.10;95.70;;;;;;4955426;29;20054;-80
2022/07/26 10:04:22;;;;;;;0.30;0.20;;;12.10;95.80;;;;;;4937864;28;20110;-76
2022/07/26 10:06:50;;;;;;;0.05;0.05;;;12.20;95.70;;;;;;4945955;29;20031;-76
2022/07/26 10:09:17;;;;;;;1.20;0.10;;;12.20;95.60;;;;;;4954070;28;20482;-81
2022/07/26 10:11:57;;;;;;;0.80;0.10;;;12.20;95.40;;;;;;4955161;28;20031;-82
2022/07/26 10:14:37;;;;;;;0.20;0.10;;;12.20;95.50;;;;;;4948967;29;20118;-81
2022/07/26 10:17:40;;;;;;;0.30;0.10;;;12.30;95.60;;;;;;4953602;28;20035;-77
2022/07/26 10:20:28;;;;;;;0.20;0.03;;;12.20;95.80;;;;;;4892051;29;20526;-81
2022/07/26 10:22:56;;;;;;;1.85;0.10;;;12.20;95.70;;;;;;4946570;28;20047;-79
2022/07/26 10:25:23;;;;;;;0.90;0.10;;;12.20;95.70;;;;;;4947880;28;20062;-75
2022/07/26 10:27:58;;;;;;;1.10;0.10;;;12.20;95.60;;;;;;4942856;29;20027;-77
2022/07/26 10:30:28;;;;;;;0.63;0.10;;;12.10;95.60;;;;;;4945738;28;20027;-76
2022/07/26 10:33:00;;;;;;;0.63;0.10;;;12.10;95.70;;;;;;4941769;29;20062;-79
2022/07/26 10:35:40;;;;;;;0.10;0.10;;;12.00;95.80;;;;;;4949224;29;20047;-75
2022/07/26 10:38:25;;;;;;;1.00;0.20;;;12.00;95.80;;;;;;4947112;29;20101;-82
2022/07/26 10:40:59;;;;;;;0.52;0.10;;;12.00;95.80;;;;;;4948543;29;20401;-77
2022/07/26 10:43:28;;;;;;;0.85;0.60;;;11.90;96.00;;;;;;4936056;28;20041;-74
2022/07/26 10:46:16;;;;;;;0.20;0.10;;;11.90;95.60;;;;;;4945086;28;20054;-76
2022/07/26 10:49:05;;;;;;;0.45;0.10;;;11.90;95.70;;;;;;4938089;28;20071;-79
2022/07/26 10:51:35;;;;;;;0.55;0.30;;;11.90;95.60;;;;;;4939388;28;20039;-80
2022/07/26 10:54:08;;;;;;;0.43;0.15;;;11.80;95.90;;;;;;4947673;28;20482;-77
2022/07/26 10:56:36;;;;;;;0.40;0.10;;;11.80;96.00;;;;;;4947621;28;20481;-75
2022/07/26 10:59:05;;;;;;;1.45;0.30;;;11.70;95.80;;;;;;4931177;29;20058;-77
2022/07/26 11:01:37;;;;;;;0.22;0.10;;;11.70;95.70;;;;;;4945150;28;20032;-77
2022/07/26 11:04:06;;;;;;;1.42;0.70;;;11.60;96.00;;;;;;4942467;28;20394;-80
2022/07/26 11:06:34;;;;;;;1.02;0.40;;;11.60;96.10;;;;;;4939456;28;20051;-74
2022/07/26 11:09:11;;;;;;;1.38;0.40;;;11.60;96.10;;;;;;4945881;28;20043;-83
2022/07/26 11:11:39;;;;;;;1.95;0.35;;;11.50;96.30;;;;;;4946762;29;20035;-83
2022/07/26 11:14:09;;;;;;;1.10;0.20;;;11.50;95.80;;;;;;4950930;28;20031;-76
2022/07/26 11:16:44;;;;;;;0.43;0.10;;;11.50;96.00;;;;;;4946333;28;20042;-77
2022/07/26 11:19:16;;;;;;;0.47;0.20;;;11.40;96.30;;;;;;4946847;28;20045;-79
2022/07/26 11:21:58;;;;;;;0.52;0.17;;;11.40;96.40;;;;;;4948719;28;20058;-80
2022/07/26 11:24:26;;;;;;;0.43;0.20;;;11.30;96.30;;;;;;4942542;28;20035;-78
2022/07/26 11:26:54;;;;;;;0.70;0.20;;;11.20;96.40;;;;;;4946378;28;20435;-76
2022/07/26 11:29:28;;;;;;;0.60;0.25;;;11.10;96.40;;;;;;4942351;28;20058;-79
2022/07/26 11:31:56;;;;;;;1.23;0.60;;;11.10;96.30;;;;;;4949600;29;20102;-80
2022/07/26 11:34:26;;;;;;;2.72;0.20;;;11.00;96.40;;;;;;4942385;28;20098;-81
2022/07/26 11:36:56;;;;;;;0.60;0.30;;;11.00;96.40;;;;;;4949301;28;20617;-78
2022/07/26 11:39:26;;;;;;;0.90;0.38;;;11.00;96.50;;;;;;4943602;29;20390;-79
2022/07/26 11:42:11;;;;;;;1.10;0.30;;;10.90;96.60;;;;;;4949703;28;20027;-80
2022/07/26 11:44:43;;;;;;;2.17;1.40;;;10.90;96.40;;;;;;4920497;29;20055;-81
2022/07/26 11:47:18;;;;;;;1.33;0.47;;;10.90;96.40;;;;;;4948560;28;20478;-82
2022/07/26 11:49:46;;;;;;;0.75;0.65;;;10.90;96.30;;;;;;4950025;29;20047;-82
2022/07/26 11:52:14;;;;;;;0.82;0.80;;;11.00;96.20;;;;;;4948001;28;20211;-80
2022/07/26 11:54:49;;;;;;;0.90;0.10;;;11.00;96.10;;;;;;4940448;28;20035;-81
2022/07/26 11:57:18;;;;;;;0.57;0.10;;;11.10;96.20;;;;;;4947321;28;20039;-83
2022/07/26 11:59:47;;;;;;;1.02;0.20;;;11.10;96.10;;;;;;4942103;28;20122;-80
2022/07/26 12:02:15;;;;;;;1.58;0.20;;;11.00;96.30;;;;;;4942646;28;20486;-81
2022/07/26 12:04:43;;;;;;;0.38;0.20;;;11.00;96.10;;;;;;4946414;28;20475;-82
2022/07/26 12:07:20;;;;;;;1.60;0.75;;;11.00;96.50;;;;;;4948136;28;20031;-79
2022/07/26 12:09:52;;;;;;;3.72;0.20;;;10.90;96.30;;;;;;4939668;29;20351;-77
2022/07/26 12:12:23;;;;;;;0.80;0.55;;;10.90;96.40;;;;;;4944856;28;20035;-76
2022/07/26 12:15:04;;;;;;;0.77;0.40;;;10.90;96.50;;;;;;4936392;28;20035;-76
2022/07/26 12:17:32;;;;;;;0.38;0.30;;;10.80;96.60;;;;;;4950874;29;20114;-76
2022/07/26 12:20:17;;;;;;;0.28;0.10;;;10.90;96.50;;;;;;4948379;29;20039;-79
2022/07/26 12:23:04;;;;;;;0.73;0.30;;;10.90;96.50;;;;;;4949102;28;20031;-77
2022/07/26 12:25:35;;;;;;;1.42;0.40;;;10.90;96.50;;;;;;4943050;28;20039;-80
2022/07/26 12:28:05;;;;;;;1.85;0.60;;;10.90;96.70;;;;;;4945838;29;20019;-77
2022/07/26 12:30:35;;;;;;;1.48;0.50;;;10.90;96.70;;;;;;4948971;29;20037;-80
2022/07/26 12:33:03;;;;;;;1.95;0.60;;;10.80;96.90;;;;;;4941959;28;20047;-81
2022/07/26 12:35:36;;;;;;;1.23;0.88;;;10.70;97.00;;;;;;4943375;28;20043;-82
2022/07/26 12:38:04;;;;;;;2.25;0.50;;;10.70;97.20;;;;;;4944610;28;20562;-82
2022/07/26 12:40:41;;;;;;;0.20;0.10;;;10.60;97.10;;;;;;4950617;28;20862;-81
2022/07/26 12:43:09;;;;;;;0.40;0.22;;;10.60;97.20;;;;;;4941669;28;20034;-77
2022/07/26 12:45:37;;;;;;;2.05;0.40;;;10.60;97.30;;;;;;4947607;28;20047;-78
2022/07/26 12:48:11;;;;;;;0.50;0.30;;;10.60;97.60;;;;;;4941296;29;20191;-90
2022/07/26 12:50:38;;;;;;;1.73;0.82;;;10.50;97.60;;;;;;4941621;28;20031;-80
2022/07/26 12:53:08;;;;;;;1.00;0.60;;;10.40;97.80;;;;;;4941515;28;20137;-78
2022/07/26 12:55:36;;;;;;;0.52;0.40;;;10.40;97.90;;;;;;4938889;28;20036;-77
2022/07/26 12:58:03;;;;;;;0.73;0.43;;;10.40;97.70;;;;;;4939787;28;20506;-76
2022/07/26 13:00:30;;;;;;;2.45;0.32;;;10.40;97.70;;;;;;4939592;29;20494;-78
2022/07/26 13:02:58;;;;;;;1.15;0.40;;;10.40;97.80;;;;;;4939716;28;20035;-77
2022/07/26 13:05:25;;;;;;;0.57;0.20;;;10.30;97.90;;;;;;4944576;28;20117;-78